Open Full Screen Window  High Contrast Mode
Wind Gusting 00 knots
05
August 16, 2017 5:26 PM EDT
Weather Information
Wind Direction
  190 °
Wind Speed
  05 kt (6 mph)
Wind Gust
  00 kt (0 mph)
Altimeter
29.99 in
Visibility
10 SM
Temperature
31° C
88° F
Dewpoint
18° C
64° F
Humidity
46%
1hr Rain Fall
00.00 in.
24hr Rain Fall
00.00 in.
Sky Condition
Clear
VFR

METAR KI19 162126Z AUTO 19005KT 10SM CLR 31/18 A2999 RMK AO2 T03050179

*Background is not an actual portrayal of the airport.